Time;durP1;ratioP1;P1;durP2;ratioP2;P2;SDS_P1;SDS_P2;PMS_P1;PMS_P2;Temp;Humidity;BMP_temperature;BMP_pressure;BME280_temperature;BME280_humidity;BME280_pressure;Samples;Min_cycle;Max_cycle;Signal;HPM_P1;HPM_P2
2022/06/12 00:00:28;;;;;;;0.65;0.45;;;24.10;59.90;;;;;;5080378;28;20039;-24
2022/06/12 00:02:54;;;;;;;0.63;0.30;;;24.00;60.10;;;;;;5095379;28;20036;-23
2022/06/12 00:05:21;;;;;;;0.55;0.50;;;24.00;60.10;;;;;;5090621;28;20036;-24
2022/06/12 00:07:46;;;;;;;0.35;0.25;;;24.00;60.20;;;;;;5088279;28;20043;-22
2022/06/12 00:10:12;;;;;;;0.50;0.30;;;23.90;60.40;;;;;;5083375;28;20045;-24
2022/06/12 00:12:38;;;;;;;0.30;0.30;;;23.90;60.30;;;;;;5074815;28;20044;-19
2022/06/12 00:15:04;;;;;;;0.70;0.30;;;24.00;60.30;;;;;;5087252;28;20177;-19
2022/06/12 00:17:30;;;;;;;0.45;0.22;;;24.00;60.10;;;;;;5092498;28;20096;-24
2022/06/12 00:19:56;;;;;;;0.30;0.30;;;23.90;60.30;;;;;;5094459;28;20131;-20
2022/06/12 00:22:21;;;;;;;0.30;0.30;;;23.90;60.50;;;;;;5075551;28;20052;-20
2022/06/12 00:24:47;;;;;;;0.28;0.28;;;23.90;60.40;;;;;;5083935;28;20086;-21
2022/06/12 00:27:12;;;;;;;0.30;0.25;;;23.90;60.40;;;;;;5075272;28;20040;-21
2022/06/12 00:29:39;;;;;;;0.30;0.30;;;23.90;60.30;;;;;;5088092;28;20075;-20
2022/06/12 00:32:07;;;;;;;0.30;0.30;;;23.90;60.40;;;;;;5074917;28;20068;-21
2022/06/12 00:34:36;;;;;;;0.63;0.30;;;23.90;60.60;;;;;;5074447;28;20041;-21
2022/06/12 00:37:02;;;;;;;0.52;0.20;;;23.80;60.50;;;;;;5070221;28;20056;-22
2022/06/12 00:39:28;;;;;;;0.45;0.30;;;23.80;60.50;;;;;;5090579;28;20156;-21
2022/06/12 00:41:54;;;;;;;0.30;0.30;;;23.80;60.70;;;;;;5085503;28;20067;-21
2022/06/12 00:44:24;;;;;;;0.63;0.30;;;23.80;60.50;;;;;;5074914;28;20043;-19
2022/06/12 00:47:04;;;;;;;0.50;0.40;;;23.80;60.50;;;;;;5087360;28;20054;-22
2022/06/12 00:49:31;;;;;;;0.95;0.40;;;23.80;60.50;;;;;;5083607;28;20047;-19
2022/06/12 00:52:02;;;;;;;0.30;0.25;;;23.80;60.50;;;;;;5070422;28;20057;-22
2022/06/12 00:54:29;;;;;;;0.70;0.40;;;23.80;60.50;;;;;;5077292;28;20041;-20
2022/06/12 00:56:57;;;;;;;0.35;0.30;;;23.80;60.50;;;;;;5088784;28;20044;-19
2022/06/12 00:59:38;;;;;;;0.20;0.20;;;23.80;60.40;;;;;;5078806;28;20249;-21
2022/06/12 01:02:04;;;;;;;0.50;0.30;;;23.80;60.40;;;;;;5085356;28;20126;-23
2022/06/12 01:07:16;;;;;;;0.30;0.30;;;23.80;60.40;;;;;;5078324;28;20044;-18
2022/06/12 01:09:44;;;;;;;1.15;0.30;;;23.80;60.50;;;;;;5066842;28;20044;-23
2022/06/12 01:12:13;;;;;;;0.30;0.30;;;23.80;60.50;;;;;;5080536;28;20051;-19
2022/06/12 01:14:42;;;;;;;0.68;0.32;;;23.80;60.50;;;;;;5048827;28;20044;-22
2022/06/12 01:17:08;;;;;;;0.73;0.38;;;23.80;60.40;;;;;;5060849;28;20047;-21
2022/06/12 01:19:50;;;;;;;0.50;0.35;;;23.80;60.50;;;;;;5072329;28;20115;-19
2022/06/12 01:22:31;;;;;;;0.30;0.22;;;23.80;60.50;;;;;;5071640;28;20064;-20
2022/06/12 01:25:18;;;;;;;0.60;0.40;;;23.80;60.50;;;;;;5077643;28;20044;-19
2022/06/12 01:28:05;;;;;;;0.68;0.45;;;23.70;60.30;;;;;;5097983;28;20039;-20
2022/06/12 01:30:36;;;;;;;0.47;0.47;;;23.70;60.60;;;;;;5085215;28;20131;-19
2022/06/12 01:33:14;;;;;;;0.25;0.20;;;23.80;60.50;;;;;;5097942;28;20111;-19
2022/06/12 01:35:55;;;;;;;1.13;0.30;;;23.70;60.40;;;;;;5071054;28;20047;-22
2022/06/12 01:38:27;;;;;;;0.30;0.30;;;23.80;60.30;;;;;;5070827;28;20056;-19
2022/06/12 01:41:10;;;;;;;0.20;0.13;;;23.70;60.50;;;;;;5059698;28;20420;-21
2022/06/12 01:43:52;;;;;;;0.55;0.40;;;23.70;60.60;;;;;;5059496;28;20048;-20
2022/06/12 01:46:58;;;;;;;0.30;0.17;;;23.70;60.50;;;;;;5088727;28;20479;-19
2022/06/12 01:49:31;;;;;;;0.30;0.30;;;23.60;60.50;;;;;;5085859;28;20131;-21
2022/06/12 01:51:57;;;;;;;0.20;0.10;;;23.70;60.40;;;;;;5060101;28;20432;-20
2022/06/12 01:54:22;;;;;;;0.50;0.35;;;23.60;60.50;;;;;;5077749;28;20279;-19
2022/06/12 01:57:02;;;;;;;0.47;0.40;;;23.60;60.50;;;;;;5076194;28;20048;-18
2022/06/12 01:59:41;;;;;;;0.32;0.22;;;23.70;60.40;;;;;;5088964;28;20135;-19
2022/06/12 02:02:21;;;;;;;0.28;0.28;;;23.70;60.30;;;;;;5059330;28;20064;-20
2022/06/12 02:04:47;;;;;;;0.60;0.32;;;23.70;60.30;;;;;;5070599;28;20040;-20
2022/06/12 02:07:33;;;;;;;0.65;0.40;;;23.70;60.30;;;;;;5081843;28;20143;-20
2022/06/12 02:10:28;;;;;;;0.40;0.20;;;23.70;60.30;;;;;;5063930;28;20040;-22
2022/06/12 02:13:12;;;;;;;0.90;0.40;;;23.70;60.20;;;;;;5073481;28;20048;-19
2022/06/12 02:16:08;;;;;;;0.35;0.30;;;23.70;60.10;;;;;;5060552;28;20154;-20
2022/06/12 02:18:41;;;;;;;0.40;0.30;;;23.70;60.10;;;;;;5076373;28;20044;-19
2022/06/12 02:21:31;;;;;;;0.32;0.32;;;23.60;60.20;;;;;;5076520;28;20053;-21
2022/06/12 02:24:25;;;;;;;0.30;0.30;;;23.60;60.30;;;;;;5024833;28;20049;-20
2022/06/12 02:27:00;;;;;;;0.30;0.20;;;23.60;60.20;;;;;;5050337;28;20086;-19
2022/06/12 02:29:34;;;;;;;0.20;0.20;;;23.70;60.20;;;;;;5067142;28;20052;-20
2022/06/12 02:32:03;;;;;;;0.40;0.30;;;23.70;60.20;;;;;;5058351;28;20083;-20
2022/06/12 02:34:31;;;;;;;0.40;0.30;;;23.70;60.00;;;;;;5077841;28;20097;-21
2022/06/12 02:37:11;;;;;;;0.10;0.10;;;23.80;60.00;;;;;;5089852;28;20063;-21
2022/06/12 02:39:40;;;;;;;0.50;0.20;;;23.70;60.00;;;;;;5044309;28;20048;-20
2022/06/12 02:42:13;;;;;;;0.50;0.40;;;23.60;60.00;;;;;;5047845;28;20039;-20
2022/06/12 02:44:48;;;;;;;0.95;0.47;;;23.60;60.20;;;;;;5074695;28;20074;-22
2022/06/12 02:47:16;;;;;;;0.52;0.30;;;23.60;60.10;;;;;;5087970;28;20043;-20
2022/06/12 02:49:46;;;;;;;0.50;0.30;;;23.60;60.10;;;;;;5085146;28;20061;-22
2022/06/12 02:52:15;;;;;;;0.35;0.30;;;23.60;60.10;;;;;;5039532;28;20120;-19
2022/06/12 02:54:53;;;;;;;0.35;0.30;;;23.60;60.10;;;;;;5068342;28;20044;-19
2022/06/12 02:57:40;;;;;;;0.30;0.30;;;23.60;60.10;;;;;;5070526;28;20425;-22
2022/06/12 03:00:16;;;;;;;0.30;0.30;;;23.70;60.00;;;;;;5076117;28;20130;-20
2022/06/12 03:02:47;;;;;;;0.30;0.30;;;23.60;59.90;;;;;;5074214;28;20569;-22
2022/06/12 03:05:20;;;;;;;0.32;0.20;;;23.60;60.00;;;;;;5080046;28;20045;-22
2022/06/12 03:07:46;;;;;;;0.50;0.30;;;23.60;60.10;;;;;;5085827;28;20048;-21
2022/06/12 03:10:13;;;;;;;0.47;0.47;;;23.60;60.00;;;;;;5076344;28;20043;-20
2022/06/12 03:12:39;;;;;;;0.50;0.47;;;23.60;59.90;;;;;;5058295;28;20036;-21
2022/06/12 03:15:05;;;;;;;0.50;0.22;;;23.60;60.80;;;;;;5051359;28;20060;-21
2022/06/12 03:17:31;;;;;;;0.50;0.40;;;23.60;60.00;;;;;;5057473;28;20095;-20
2022/06/12 03:19:57;;;;;;;0.65;0.40;;;23.60;59.80;;;;;;5086474;28;20048;-20
2022/06/12 03:22:42;;;;;;;0.30;0.25;;;23.60;59.90;;;;;;5075162;28;20097;-19
2022/06/12 03:25:23;;;;;;;0.47;0.43;;;23.60;60.00;;;;;;5045105;28;20052;-22
2022/06/12 03:27:58;;;;;;;0.30;0.25;;;23.60;59.90;;;;;;5059888;28;20048;-21
2022/06/12 03:30:32;;;;;;;0.57;0.47;;;23.60;59.90;;;;;;5058480;28;20033;-19
2022/06/12 03:33:01;;;;;;;0.40;0.38;;;23.60;59.80;;;;;;5048651;28;20044;-19
2022/06/12 03:35:52;;;;;;;0.50;0.38;;;23.60;59.80;;;;;;5093468;28;20032;-19
2022/06/12 03:38:17;;;;;;;0.38;0.38;;;23.60;59.80;;;;;;5083646;28;20504;-22
2022/06/12 03:40:56;;;;;;;0.22;0.17;;;23.60;59.80;;;;;;5095564;28;20441;-21
2022/06/12 03:43:28;;;;;;;0.40;0.30;;;23.60;59.90;;;;;;5050343;28;20044;-20
2022/06/12 03:46:35;;;;;;;0.30;0.25;;;23.60;60.00;;;;;;5060660;28;20123;-20
2022/06/12 03:49:30;;;;;;;0.25;0.22;;;23.60;59.80;;;;;;5049480;28;20553;-19
2022/06/12 03:52:23;;;;;;;0.30;0.30;;;23.60;59.80;;;;;;5074727;28;20039;-20
2022/06/12 03:55:18;;;;;;;0.30;0.30;;;23.60;59.80;;;;;;5049468;28;20051;-18
2022/06/12 03:57:52;;;;;;;0.38;0.25;;;23.50;59.90;;;;;;5041992;28;20137;-19
2022/06/12 04:00:20;;;;;;;0.50;0.30;;;23.60;59.90;;;;;;5044894;28;20506;-19
2022/06/12 04:02:48;;;;;;;0.28;0.20;;;23.60;59.80;;;;;;5063152;28;20036;-19
2022/06/12 04:05:20;;;;;;;0.22;0.22;;;23.60;59.70;;;;;;5060717;28;20048;-20
2022/06/12 04:07:47;;;;;;;0.55;0.30;;;23.60;59.70;;;;;;5056812;28;20579;-19
2022/06/12 04:10:18;;;;;;;0.30;0.20;;;23.60;59.70;;;;;;5039931;28;20040;-21
2022/06/12 04:12:43;;;;;;;0.30;0.30;;;23.60;59.70;;;;;;5068071;28;20459;-20
2022/06/12 04:15:15;;;;;;;0.90;0.52;;;23.60;59.80;;;;;;5057455;28;20048;-20
2022/06/12 04:17:41;;;;;;;0.35;0.22;;;23.60;59.80;;;;;;5072901;28;20516;-20
2022/06/12 04:20:13;;;;;;;0.40;0.40;;;23.50;59.80;;;;;;5089189;28;20503;-20
2022/06/12 04:22:46;;;;;;;0.57;0.20;;;23.50;59.70;;;;;;5068286;28;20493;-20
2022/06/12 04:25:52;;;;;;;0.22;0.22;;;23.50;59.80;;;;;;5036945;28;20136;-18
2022/06/12 04:28:28;;;;;;;0.30;0.30;;;23.50;59.80;;;;;;5024680;28;20136;-22
2022/06/12 04:30:54;;;;;;;0.30;0.28;;;23.60;59.70;;;;;;5040998;28;20063;-21
2022/06/12 04:33:35;;;;;;;0.40;0.30;;;23.50;59.70;;;;;;5055229;28;20060;-22
2022/06/12 04:36:03;;;;;;;0.40;0.30;;;23.50;59.80;;;;;;5034323;28;20044;-21
2022/06/12 04:38:29;;;;;;;0.50;0.22;;;23.50;59.70;;;;;;5053528;28;20060;-19
2022/06/12 04:40:54;;;;;;;0.25;0.25;;;23.50;59.80;;;;;;5054483;28;20553;-20
2022/06/12 04:43:20;;;;;;;0.63;0.30;;;23.50;59.70;;;;;;5053846;28;20443;-20
2022/06/12 04:45:46;;;;;;;0.43;0.30;;;23.50;59.80;;;;;;5054226;28;20096;-21
2022/06/12 04:48:14;;;;;;;0.28;0.28;;;23.50;59.70;;;;;;5054017;28;20052;-19
2022/06/12 04:50:40;;;;;;;1.45;0.30;;;23.50;59.80;;;;;;5045332;28;20051;-21
2022/06/12 04:53:06;;;;;;;3.17;0.75;;;23.50;61.50;;;;;;5068457;28;20045;-19
2022/06/12 04:55:33;;;;;;;2.38;0.90;;;23.50;60.50;;;;;;5044055;28;20052;-21
2022/06/12 04:57:59;;;;;;;3.88;1.65;;;23.40;57.70;;;;;;5053310;28;20112;-21
2022/06/12 05:00:26;;;;;;;3.72;1.70;;;22.80;57.00;;;;;;5054905;28;20506;-21
2022/06/12 05:02:51;;;;;;;5.68;2.28;;;22.40;56.80;;;;;;5052982;28;20536;-21
2022/06/12 05:05:17;;;;;;;3.97;1.70;;;22.00;57.60;;;;;;5054785;28;20453;-21
2022/06/12 05:07:42;;;;;;;4.16;1.62;;;21.90;57.60;;;;;;4703733;28;10001162;-20
2022/06/12 05:10:09;;;;;;;4.38;1.63;;;21.80;57.60;;;;;;5041918;28;20049;-20
2022/06/12 05:12:34;;;;;;;3.80;1.60;;;21.70;58.30;;;;;;5030342;28;20059;-22
2022/06/12 05:15:00;;;;;;;3.58;1.80;;;21.60;58.40;;;;;;5037223;28;20045;-24
2022/06/12 05:17:27;;;;;;;6.32;2.00;;;21.50;58.70;;;;;;5051219;28;20090;-21
2022/06/12 05:19:52;;;;;;;3.92;1.52;;;21.40;59.10;;;;;;5047175;28;20055;-21
2022/06/12 05:22:21;;;;;;;4.30;1.88;;;21.40;59.20;;;;;;5048322;28;20049;-21
2022/06/12 05:24:47;;;;;;;5.00;1.95;;;21.30;59.40;;;;;;5066232;28;20053;-21
2022/06/12 05:27:16;;;;;;;2.97;1.95;;;21.20;59.60;;;;;;5066145;28;20054;-23
2022/06/12 05:29:42;;;;;;;6.20;2.08;;;21.10;59.80;;;;;;5040909;28;20607;-20
2022/06/12 05:32:10;;;;;;;4.38;1.92;;;21.00;60.10;;;;;;5067220;28;20481;-22
2022/06/12 05:34:36;;;;;;;5.30;2.13;;;20.80;60.90;;;;;;5051395;28;20151;-20
2022/06/12 05:37:01;;;;;;;5.15;1.88;;;20.80;61.30;;;;;;5070153;28;20116;-20
2022/06/12 05:39:27;;;;;;;4.13;1.48;;;20.80;61.10;;;;;;5071069;28;20122;-21
2022/06/12 05:41:53;;;;;;;6.03;2.03;;;20.70;61.80;;;;;;5056275;28;20037;-21
2022/06/12 05:44:19;;;;;;;3.70;2.03;;;20.70;61.80;;;;;;5072022;28;20445;-18
2022/06/12 05:46:44;;;;;;;4.43;1.98;;;20.50;62.40;;;;;;5075787;28;20037;-20
2022/06/12 05:49:10;;;;;;;4.82;1.90;;;20.40;63.10;;;;;;5074645;28;20507;-18
2022/06/12 05:51:36;;;;;;;5.82;1.85;;;20.20;63.60;;;;;;5073472;28;20094;-18
2022/06/12 05:54:01;;;;;;;5.13;1.88;;;20.30;63.30;;;;;;5072789;28;20059;-19
2022/06/12 05:56:28;;;;;;;3.88;1.90;;;20.20;63.70;;;;;;5072187;28;20187;-20
2022/06/12 05:58:54;;;;;;;3.58;1.77;;;20.10;63.90;;;;;;5072028;28;20190;-19
2022/06/12 06:01:20;;;;;;;4.55;1.80;;;20.10;63.80;;;;;;5071003;28;20036;-19
2022/06/12 06:03:46;;;;;;;5.20;2.08;;;20.20;63.70;;;;;;5055055;28;20059;-19
2022/06/12 06:06:15;;;;;;;3.20;1.90;;;20.10;63.90;;;;;;5072224;28;20051;-19
2022/06/12 06:08:40;;;;;;;2.75;1.83;;;20.00;64.50;;;;;;5054870;28;20056;-19
2022/06/12 06:11:07;;;;;;;3.08;1.90;;;19.80;65.30;;;;;;5073352;28;20044;-21
2022/06/12 06:13:33;;;;;;;3.10;1.67;;;19.80;65.80;;;;;;5078373;28;20129;-19
2022/06/12 06:15:59;;;;;;;3.70;1.80;;;19.70;66.10;;;;;;5073434;28;20068;-19
2022/06/12 06:18:24;;;;;;;6.78;2.28;;;19.60;66.80;;;;;;5059725;28;20539;-19
2022/06/12 06:20:50;;;;;;;3.75;1.60;;;19.60;66.60;;;;;;5070106;28;20092;-21
2022/06/12 06:23:16;;;;;;;2.95;1.92;;;19.40;67.30;;;;;;5071996;28;20040;-21
2022/06/12 06:25:42;;;;;;;5.03;2.03;;;19.40;67.50;;;;;;5055298;28;20432;-19
2022/06/12 06:28:08;;;;;;;2.72;1.90;;;19.50;67.20;;;;;;5074355;28;20032;-20
2022/06/12 06:30:34;;;;;;;4.35;2.20;;;19.60;67.30;;;;;;5067472;28;20184;-18
2022/06/12 06:33:00;;;;;;;2.83;1.55;;;19.30;68.10;;;;;;5069016;28;20061;-20
2022/06/12 06:35:26;;;;;;;4.63;1.90;;;19.40;68.00;;;;;;5063875;28;20048;-19
2022/06/12 06:37:52;;;;;;;5.35;2.28;;;19.40;67.90;;;;;;5071916;28;20045;-21
2022/06/12 06:40:18;;;;;;;5.50;2.47;;;19.40;68.30;;;;;;5073957;28;20049;-19
2022/06/12 06:42:44;;;;;;;3.22;1.80;;;19.30;68.50;;;;;;5073284;28;20071;-18
2022/06/12 06:47:56;;;;;;;6.05;1.77;;;19.40;68.70;;;;;;5072675;28;20054;-19
2022/06/12 06:50:22;;;;;;;6.03;2.20;;;19.20;69.20;;;;;;5069283;28;20048;-19
2022/06/12 06:52:47;;;;;;;5.80;2.35;;;19.30;69.20;;;;;;5079383;28;20041;-20
2022/06/12 06:55:13;;;;;;;5.53;1.92;;;19.40;68.90;;;;;;5068991;28;20052;-18
2022/06/12 06:57:40;;;;;;;4.47;2.00;;;19.50;68.60;;;;;;5079532;28;20189;-20
2022/06/12 07:00:07;;;;;;;5.85;1.90;;;19.40;69.10;;;;;;5075902;28;20457;-20
2022/06/12 07:02:32;;;;;;;4.78;1.90;;;19.30;69.40;;;;;;5066212;28;20045;-19
2022/06/12 07:04:58;;;;;;;5.13;2.10;;;19.40;69.30;;;;;;5070684;28;20040;-20
2022/06/12 07:07:24;;;;;;;6.57;2.70;;;19.40;69.60;;;;;;5071570;28;20044;-19
2022/06/12 07:09:49;;;;;;;6.55;2.45;;;19.40;69.50;;;;;;5069627;28;20048;-21
2022/06/12 07:12:15;;;;;;;9.57;2.13;;;19.40;70.30;;;;;;5070841;28;20055;-19
2022/06/12 07:14:41;;;;;;;6.32;1.90;;;19.40;70.00;;;;;;5072764;28;20102;-19
2022/06/12 07:17:06;;;;;;;4.60;1.95;;;19.40;69.80;;;;;;5064381;28;20040;-20
2022/06/12 07:19:33;;;;;;;8.45;2.45;;;19.50;69.60;;;;;;5074326;28;20041;-23
2022/06/12 07:21:58;;;;;;;7.25;1.92;;;19.30;70.00;;;;;;5070987;28;20050;-21
2022/06/12 07:24:24;;;;;;;5.13;2.15;;;19.40;69.80;;;;;;5071752;28;20505;-21
2022/06/12 07:26:49;;;;;;;8.07;2.70;;;19.50;69.30;;;;;;5075394;28;20044;-21
2022/06/12 07:29:17;;;;;;;5.13;1.90;;;19.60;69.10;;;;;;5053848;28;20052;-23
2022/06/12 07:31:43;;;;;;;4.43;2.45;;;19.50;69.40;;;;;;5063074;28;20654;-20
2022/06/12 07:34:12;;;;;;;4.75;2.08;;;19.50;69.50;;;;;;5075501;28;20048;-19
2022/06/12 07:36:37;;;;;;;5.35;1.90;;;19.50;69.60;;;;;;5072071;28;20040;-22
2022/06/12 07:39:05;;;;;;;4.53;2.05;;;19.60;69.00;;;;;;5053491;28;20571;-21
2022/06/12 07:41:30;;;;;;;4.35;1.83;;;19.60;68.70;;;;;;5055072;28;20194;-22
2022/06/12 07:43:56;;;;;;;4.15;1.83;;;19.60;68.30;;;;;;5070314;28;20091;-22
2022/06/12 07:46:21;;;;;;;6.18;2.05;;;19.50;68.50;;;;;;5060289;28;20054;-20
2022/06/12 07:48:48;;;;;;;3.78;1.70;;;19.70;67.70;;;;;;5073780;28;20043;-21
2022/06/12 07:51:17;;;;;;;3.17;1.42;;;19.80;67.40;;;;;;5075965;28;20066;-19
2022/06/12 07:53:43;;;;;;;4.68;1.83;;;19.70;67.50;;;;;;5070083;28;20048;-22
2022/06/12 07:56:09;;;;;;;9.18;2.30;;;19.70;67.30;;;;;;5057009;28;20052;-23
2022/06/12 07:58:35;;;;;;;4.55;1.63;;;19.80;67.30;;;;;;5064848;28;20171;-21
2022/06/12 08:01:02;;;;;;;5.57;2.03;;;19.80;67.40;;;;;;5056007;28;20045;-22
2022/06/12 08:03:27;;;;;;;3.30;1.77;;;19.80;67.40;;;;;;5055147;28;20720;-21
2022/06/12 08:05:53;;;;;;;2.90;1.67;;;19.90;67.00;;;;;;5058699;28;20473;-21
2022/06/12 08:08:19;;;;;;;4.50;1.60;;;19.90;66.80;;;;;;5056258;28;20150;-20
2022/06/12 08:10:44;;;;;;;3.03;1.60;;;20.00;66.60;;;;;;5056353;28;20055;-20
2022/06/12 08:13:11;;;;;;;3.60;1.95;;;20.10;66.20;;;;;;5056584;28;20102;-20
2022/06/12 08:15:37;;;;;;;3.17;1.80;;;20.10;66.20;;;;;;5056927;28;20048;-19
2022/06/12 08:18:04;;;;;;;2.58;1.50;;;20.10;66.30;;;;;;5055758;28;20135;-19
2022/06/12 08:20:30;;;;;;;4.00;1.63;;;20.10;66.20;;;;;;5055923;28;20048;-22
2022/06/12 08:23:06;;;;;;;5.30;2.40;;;20.10;66.10;;;;;;5038230;28;20078;-19
2022/06/12 08:25:33;;;;;;;10.80;1.85;;;20.20;65.90;;;;;;5042546;28;20079;-20
2022/06/12 08:28:00;;;;;;;6.45;2.13;;;20.20;65.70;;;;;;5047528;28;20520;-20
2022/06/12 08:30:26;;;;;;;2.60;1.52;;;20.30;65.50;;;;;;5022925;28;20060;-20
2022/06/12 08:32:52;;;;;;;3.00;1.63;;;20.30;65.40;;;;;;5047975;28;20061;-19
2022/06/12 08:35:24;;;;;;;2.75;1.58;;;20.40;65.00;;;;;;5024612;28;20163;-19
2022/06/12 08:37:50;;;;;;;3.08;1.83;;;20.40;64.70;;;;;;5034773;28;20135;-19
2022/06/12 08:40:50;;;;;;;2.95;1.90;;;20.50;64.40;;;;;;5051004;28;20880;-19
2022/06/12 08:43:27;;;;;;;4.22;1.85;;;20.50;64.10;;;;;;4978154;28;20054;-20
2022/06/12 08:45:53;;;;;;;2.80;1.45;;;20.50;64.00;;;;;;5025205;28;20113;-19
2022/06/12 08:48:55;;;;;;;4.20;1.92;;;20.50;63.60;;;;;;5025508;28;20225;-20
2022/06/12 08:51:26;;;;;;;4.57;1.98;;;20.50;63.10;;;;;;5025414;28;20144;-21
2022/06/12 08:53:58;;;;;;;3.40;1.80;;;20.60;62.80;;;;;;5018379;28;20502;-23
2022/06/12 08:56:43;;;;;;;3.53;1.52;;;20.60;62.90;;;;;;5027702;28;20490;-22
2022/06/12 08:59:30;;;;;;;2.65;1.40;;;20.60;63.00;;;;;;5019539;28;20587;-21
2022/06/12 09:01:56;;;;;;;2.75;1.35;;;20.70;62.70;;;;;;5042341;28;20040;-23
2022/06/12 09:04:23;;;;;;;1.98;1.48;;;20.80;62.50;;;;;;5043283;28;20105;-22
2022/06/12 09:06:51;;;;;;;2.60;1.30;;;20.90;62.30;;;;;;5040630;28;20071;-19
2022/06/12 09:09:24;;;;;;;3.30;1.58;;;20.90;62.10;;;;;;5050245;28;20069;-22
2022/06/12 09:12:10;;;;;;;3.43;1.50;;;21.00;61.90;;;;;;4676089;28;9999742;-19
2022/06/12 09:14:50;;;;;;;2.63;1.65;;;21.00;61.70;;;;;;5048701;28;20045;-18
2022/06/12 09:17:16;;;;;;;3.15;1.42;;;21.10;61.70;;;;;;5046780;28;20037;-19
2022/06/12 09:20:09;;;;;;;3.53;1.48;;;21.00;61.70;;;;;;5066458;28;20648;-20
2022/06/12 09:22:54;;;;;;;3.00;1.58;;;21.10;61.60;;;;;;5027868;28;20044;-19
2022/06/12 09:25:26;;;;;;;2.70;1.40;;;21.10;61.50;;;;;;5056460;28;20115;-18
2022/06/12 09:28:26;;;;;;;2.00;1.30;;;21.10;61.40;;;;;;5040514;28;20473;-20
2022/06/12 09:31:15;;;;;;;2.42;1.58;;;21.10;61.40;;;;;;5038971;28;20059;-21
2022/06/12 09:33:49;;;;;;;1.38;1.15;;;21.20;61.40;;;;;;5042818;28;20048;-21
2022/06/12 09:36:30;;;;;;;2.88;1.92;;;21.20;61.50;;;;;;5050830;28;20439;-20
2022/06/12 09:39:43;;;;;;;2.75;1.65;;;21.10;61.30;;;;;;5053976;28;20037;-19
2022/06/12 09:42:23;;;;;;;2.40;1.48;;;21.20;61.20;;;;;;5049397;28;20087;-18
2022/06/12 09:44:48;;;;;;;2.00;1.20;;;21.20;61.10;;;;;;5038779;28;20063;-21
2022/06/12 09:47:17;;;;;;;2.08;1.50;;;21.20;61.10;;;;;;5048733;28;20041;-19
2022/06/12 09:49:51;;;;;;;1.40;1.30;;;21.30;61.00;;;;;;5050051;28;20505;-21
2022/06/12 09:52:45;;;;;;;1.30;1.20;;;21.30;61.00;;;;;;5049366;28;20048;-19
2022/06/12 09:55:22;;;;;;;1.40;1.20;;;21.30;61.10;;;;;;5025938;28;20135;-20
2022/06/12 09:58:13;;;;;;;2.60;1.20;;;21.30;60.90;;;;;;5034844;28;20087;-19
2022/06/12 10:00:45;;;;;;;1.45;1.30;;;21.30;60.90;;;;;;5063221;28;20044;-20
2022/06/12 10:03:11;;;;;;;1.60;1.10;;;21.40;60.80;;;;;;5036341;28;20047;-19
2022/06/12 10:05:57;;;;;;;1.23;1.10;;;21.40;60.70;;;;;;5049470;28;20041;-20
2022/06/12 10:08:34;;;;;;;2.38;1.88;;;21.40;60.70;;;;;;5037303;28;20044;-20
2022/06/12 10:11:08;;;;;;;1.52;1.38;;;21.40;60.50;;;;;;5016613;28;20506;-20
2022/06/12 10:13:45;;;;;;;1.73;1.27;;;21.40;60.40;;;;;;5055309;28;20049;-20
2022/06/12 10:16:18;;;;;;;2.38;1.33;;;21.40;60.40;;;;;;5022060;28;20044;-22
2022/06/12 10:19:06;;;;;;;2.28;1.20;;;21.40;60.40;;;;;;5039619;28;20033;-21
2022/06/12 10:21:33;;;;;;;2.22;1.20;;;21.50;60.30;;;;;;5018079;28;20456;-21
2022/06/12 10:24:01;;;;;;;1.80;1.20;;;21.50;60.30;;;;;;5048912;28;20044;-22
2022/06/12 10:26:29;;;;;;;2.03;1.40;;;21.50;60.40;;;;;;5077447;28;20048;-20
2022/06/12 10:29:08;;;;;;;1.92;1.10;;;21.50;60.30;;;;;;5081082;28;20123;-22
2022/06/12 10:31:34;;;;;;;1.70;1.20;;;21.50;60.30;;;;;;5076522;28;20041;-20
2022/06/12 10:34:20;;;;;;;3.35;1.50;;;21.50;60.30;;;;;;5086038;28;20504;-20
2022/06/12 10:36:46;;;;;;;1.42;1.33;;;21.40;60.30;;;;;;4713720;28;9999821;-19
2022/06/12 10:39:25;;;;;;;2.90;1.50;;;21.50;60.40;;;;;;5069262;28;20068;-20
2022/06/12 10:41:59;;;;;;;1.27;1.02;;;21.50;60.20;;;;;;5073444;28;20048;-20
2022/06/12 10:44:29;;;;;;;1.70;1.60;;;21.40;60.30;;;;;;5060536;28;20238;-19
2022/06/12 10:46:55;;;;;;;2.08;1.45;;;21.50;60.30;;;;;;5073165;28;20068;-20
2022/06/12 10:49:23;;;;;;;3.08;1.60;;;21.50;60.30;;;;;;5052699;28;20091;-20
2022/06/12 10:51:49;;;;;;;2.03;1.50;;;21.50;60.20;;;;;;5085803;28;20670;-22
2022/06/12 10:54:27;;;;;;;1.50;1.40;;;21.50;60.30;;;;;;5089603;28;20451;-19
2022/06/12 10:57:05;;;;;;;1.90;1.02;;;21.50;60.20;;;;;;5063681;28;20037;-21
2022/06/12 10:59:48;;;;;;;1.70;1.20;;;21.60;60.10;;;;;;5052608;28;20136;-20
2022/06/12 11:02:31;;;;;;;3.20;1.42;;;21.60;60.10;;;;;;5064506;28;20054;-20
2022/06/12 11:04:57;;;;;;;2.05;1.30;;;21.60;60.10;;;;;;5059757;28;20056;-22
2022/06/12 11:07:46;;;;;;;1.67;1.15;;;21.60;60.00;;;;;;5075161;28;20044;-20
2022/06/12 11:10:18;;;;;;;2.47;1.00;;;21.60;60.00;;;;;;5060772;28;20052;-22
2022/06/12 11:13:09;;;;;;;2.03;1.10;;;21.60;59.90;;;;;;5054281;28;20048;-20
2022/06/12 11:15:53;;;;;;;1.75;1.17;;;21.60;59.80;;;;;;5071972;28;20082;-19
2022/06/12 11:18:28;;;;;;;1.02;0.90;;;21.60;59.80;;;;;;5067913;28;20540;-20
2022/06/12 11:21:22;;;;;;;2.85;1.30;;;21.70;59.80;;;;;;5065523;28;20044;-22
2022/06/12 11:24:09;;;;;;;2.72;1.17;;;21.60;59.80;;;;;;5064981;28;20078;-19
2022/06/12 11:26:55;;;;;;;2.97;1.65;;;21.70;59.70;;;;;;5049175;28;20048;-19
2022/06/12 11:29:50;;;;;;;1.15;1.05;;;21.70;59.70;;;;;;5054034;28;20440;-19
2022/06/12 11:32:35;;;;;;;3.15;1.38;;;21.70;59.60;;;;;;5069678;28;20473;-21
2022/06/12 11:35:23;;;;;;;1.92;1.40;;;21.70;59.50;;;;;;5069091;28;20110;-19
2022/06/12 11:38:13;;;;;;;2.42;1.48;;;21.70;59.30;;;;;;5065484;28;20535;-19
2022/06/12 11:40:51;;;;;;;1.52;1.13;;;21.70;59.40;;;;;;5066643;28;20040;-20
2022/06/12 11:43:40;;;;;;;1.50;1.40;;;21.70;59.40;;;;;;5069066;28;20078;-20
2022/06/12 11:46:21;;;;;;;1.90;1.20;;;21.80;59.40;;;;;;5053646;28;20044;-20
2022/06/12 11:49:14;;;;;;;2.10;1.17;;;21.70;59.30;;;;;;5068642;28;20060;-20
2022/06/12 11:51:46;;;;;;;1.50;1.40;;;21.80;59.40;;;;;;5063979;28;20044;-20
2022/06/12 11:54:17;;;;;;;2.25;1.10;;;21.70;59.30;;;;;;5069963;28;20673;-19
2022/06/12 11:56:46;;;;;;;2.42;1.60;;;21.80;59.30;;;;;;5070177;28;20041;-21
2022/06/12 11:59:30;;;;;;;1.70;1.08;;;21.80;59.20;;;;;;5047213;28;20045;-20
2022/06/12 12:02:01;;;;;;;1.75;1.30;;;21.80;59.20;;;;;;5073594;28;20046;-19
2022/06/12 12:04:35;;;;;;;1.60;1.17;;;21.80;59.20;;;;;;5061361;28;20102;-19
2022/06/12 12:07:27;;;;;;;1.30;0.98;;;21.90;59.30;;;;;;5070908;28;20086;-20
2022/06/12 12:10:31;;;;;;;1.63;1.10;;;21.80;59.20;;;;;;5039136;28;20049;-20
2022/06/12 12:13:00;;;;;;;1.35;1.15;;;21.90;59.20;;;;;;5035027;28;20373;-19
2022/06/12 12:15:35;;;;;;;2.08;1.50;;;21.90;59.00;;;;;;4682960;28;10000184;-20
2022/06/12 12:18:01;;;;;;;1.98;1.40;;;21.90;59.10;;;;;;5039242;28;20060;-20
2022/06/12 12:20:39;;;;;;;2.70;1.42;;;22.00;59.00;;;;;;5037635;28;20135;-20
2022/06/12 12:23:16;;;;;;;1.10;1.00;;;22.00;59.10;;;;;;5067624;28;20131;-18
2022/06/12 12:26:03;;;;;;;1.48;1.17;;;21.90;59.00;;;;;;5040095;28;20072;-20
2022/06/12 12:28:46;;;;;;;2.13;1.20;;;21.90;59.00;;;;;;5054784;28;20048;-18
2022/06/12 12:31:13;;;;;;;1.88;1.30;;;22.00;59.00;;;;;;5055426;28;20090;-22
2022/06/12 12:33:40;;;;;;;1.05;0.98;;;22.00;59.00;;;;;;5067336;28;20040;-20
2022/06/12 12:41:47;;;;;;;1.50;0.90;;;22.00;59.00;;;;;;5065424;28;20103;-19
2022/06/12 12:44:14;;;;;;;1.77;1.30;;;22.10;59.10;;;;;;5034985;28;20064;-17
2022/06/12 12:46:46;;;;;;;1.77;1.30;;;22.00;59.00;;;;;;5058189;28;20041;-18
2022/06/12 12:49:21;;;;;;;1.45;1.10;;;22.10;59.00;;;;;;5055670;28;20029;-23
2022/06/12 12:51:47;;;;;;;2.08;1.00;;;22.00;59.00;;;;;;5074665;28;20109;-19
2022/06/12 12:54:15;;;;;;;1.27;1.10;;;22.10;59.10;;;;;;5059794;28;20045;-20
2022/06/12 12:56:52;;;;;;;1.08;0.93;;;22.00;59.10;;;;;;5070825;28;20044;-19
2022/06/12 12:59:17;;;;;;;1.10;1.00;;;22.10;59.10;;;;;;5059727;28;20087;-18
2022/06/12 13:01:45;;;;;;;1.17;1.02;;;22.00;59.10;;;;;;5062067;28;20052;-19
2022/06/12 13:04:23;;;;;;;2.13;0.90;;;22.00;59.20;;;;;;5044946;28;20557;-19
2022/06/12 13:06:58;;;;;;;0.88;0.88;;;22.00;59.20;;;;;;5078291;28;20067;-19
2022/06/12 13:09:34;;;;;;;0.98;0.93;;;22.00;59.20;;;;;;5060107;28;20120;-18
2022/06/12 13:12:22;;;;;;;1.55;0.77;;;22.00;59.10;;;;;;5060162;28;20037;-19
2022/06/12 13:15:15;;;;;;;1.67;0.90;;;22.10;59.20;;;;;;5069139;28;20046;-18
2022/06/12 13:17:49;;;;;;;1.35;1.25;;;22.10;59.20;;;;;;5080107;28;20045;-19
2022/06/12 13:20:28;;;;;;;1.02;0.88;;;22.10;59.20;;;;;;5056829;28;20058;-19
2022/06/12 13:23:03;;;;;;;1.10;1.00;;;22.10;59.10;;;;;;5072065;28;20177;-18
2022/06/12 13:25:39;;;;;;;1.50;1.00;;;22.10;59.10;;;;;;5078036;28;20155;-19